Terminal Aerodrome Forecast
Issued by NWS Jacksonville, FL

Home | Current Version | Previous Version | Text Only | Print | Product List | Glossary On
Versions: 1 2 3 4 5 6 7 8 9 10 11 12 13 14 15 16 17 18 19 20 21 22 23 24 25 26 27 28 29 30
000
FTUS42 KJAX 271135
TAFSSI
TAF
KSSI 271135Z 2712/2812 01007KT P6SM FEW035 SCT150 OVC200
     FM271400 02011G16KT P6SM BKN250
     FM271700 03014G21KT P6SM SCT250
     FM280000 02011G16KT P6SM FEW030 BKN250
     FM280600 02014G21KT P6SM SCT025 OVC250=

USA.gov is the U.S. government's official web portal to all federal, state and local government web resources and services.